createdAt,value
2018-07-01T00:01:09.525Z,101333.22
2018-07-01T00:03:37.976Z,101335.03
2018-07-01T00:06:06.810Z,101331.88
2018-07-01T00:08:35.019Z,101336.62
2018-07-01T00:11:03.593Z,101335.38
2018-07-01T00:13:31.942Z,101334.69
2018-07-01T00:16:00.485Z,101338.87
2018-07-01T00:18:29.037Z,101344.75
2018-07-01T00:20:57.641Z,101339.12
2018-07-01T00:23:26.255Z,101337.77
2018-07-01T00:25:55.374Z,101340.23
2018-07-01T00:28:24.141Z,101342.70
2018-07-01T00:30:52.949Z,101350.05
2018-07-01T00:33:21.532Z,101348.47
2018-07-01T00:35:49.936Z,101358.92
2018-07-01T00:38:18.588Z,101357.72
2018-07-01T00:40:47.038Z,101356.37
2018-07-01T00:43:15.819Z,101361.69
2018-07-01T00:45:44.472Z,101357.29
2018-07-01T00:48:12.931Z,101360.92
2018-07-01T00:50:41.763Z,101354.58
2018-07-01T00:53:10.278Z,101358.52
2018-07-01T00:55:38.893Z,101356.40
2018-07-01T00:58:07.456Z,101363.00
2018-07-01T01:00:36.132Z,101375.13
2018-07-01T01:03:04.690Z,101374.11
2018-07-01T01:05:33.353Z,101376.02
2018-07-01T01:08:01.911Z,101371.95
2018-07-01T01:10:30.311Z,101374.80
2018-07-01T01:12:58.564Z,101379.34
2018-07-01T01:15:27.137Z,101376.97
2018-07-01T01:17:55.722Z,101376.42
2018-07-01T01:20:24.289Z,101376.30
2018-07-01T01:22:52.772Z,101373.10
2018-07-01T01:25:21.348Z,101375.08
2018-07-01T01:27:49.772Z,101371.16
2018-07-01T01:30:18.157Z,101373.86
2018-07-01T01:32:46.851Z,101369.27
2018-07-01T01:35:15.283Z,101371.77
2018-07-01T01:37:43.842Z,101373.29
2018-07-01T01:40:13.708Z,101379.50
2018-07-01T01:42:50.925Z,101379.22
2018-07-01T01:45:24.867Z,101375.50
2018-07-01T01:48:11.676Z,101379.20
2018-07-01T01:50:47.144Z,101370.42
2018-07-01T01:53:29.627Z,101374.34
2018-07-01T01:56:03.973Z,101379.94
2018-07-01T01:58:37.918Z,101384.05
2018-07-01T02:01:16.121Z,101381.95
2018-07-01T02:03:59.384Z,101388.09
2018-07-01T02:06:32.025Z,101389.36
2018-07-01T02:09:06.274Z,101392.47
2018-07-01T02:11:38.170Z,101390.09
2018-07-01T02:14:10.667Z,101386.34
2018-07-01T02:16:46.219Z,101390.61
2018-07-01T02:19:14.900Z,101388.97
2018-07-01T02:21:43.523Z,101386.70
2018-07-01T02:24:17.371Z,101390.28
2018-07-01T02:26:45.851Z,101389.19
2018-07-01T02:29:14.527Z,101389.00
2018-07-01T02:31:43.339Z,101398.92
2018-07-01T02:34:11.725Z,101396.95
2018-07-01T02:36:40.575Z,101399.67
2018-07-01T02:39:10.038Z,101403.22
2018-07-01T02:41:38.946Z,101400.92
2018-07-01T02:44:07.606Z,101401.09
2018-07-01T02:46:36.377Z,101400.70
2018-07-01T02:49:05.216Z,101404.97
2018-07-01T02:51:33.560Z,101407.63
2018-07-01T02:54:01.982Z,101408.02
2018-07-01T02:56:30.600Z,101410.11
2018-07-01T02:58:59.237Z,101410.34
2018-07-01T03:01:27.571Z,101409.84
2018-07-01T03:03:56.068Z,101409.95
2018-07-01T03:06:24.479Z,101410.49
2018-07-01T03:08:52.760Z,101412.33
2018-07-01T03:11:21.122Z,101405.77
2018-07-01T03:13:49.569Z,101408.62
2018-07-01T03:16:18.332Z,101418.67
2018-07-01T03:18:47.089Z,101417.91
2018-07-01T03:21:16.820Z,101426.50
2018-07-01T03:23:45.296Z,101432.27
2018-07-01T03:26:13.856Z,101429.95
2018-07-01T03:28:42.457Z,101430.06
2018-07-01T03:31:11.096Z,101433.55
2018-07-01T03:33:39.601Z,101435.45
2018-07-01T03:36:08.049Z,101440.69
2018-07-01T03:38:36.634Z,101442.91
2018-07-01T03:41:05.029Z,101444.64
2018-07-01T03:43:33.468Z,101447.50
2018-07-01T03:46:02.061Z,101444.34
2018-07-01T03:48:30.590Z,101444.41
2018-07-01T03:50:59.120Z,101438.62
2018-07-01T03:53:27.536Z,101449.57
2018-07-01T03:55:55.992Z,101445.70
2018-07-01T03:58:24.562Z,101438.38
2018-07-01T04:00:53.481Z,101444.41
2018-07-01T04:03:21.981Z,101443.61
2018-07-01T04:05:50.545Z,101442.58
2018-07-01T04:08:19.072Z,101441.72
2018-07-01T04:10:47.932Z,101441.48
2018-07-01T04:13:16.397Z,101441.38
2018-07-01T04:15:45.155Z,101436.11
2018-07-01T04:18:13.968Z,101441.67
2018-07-01T04:20:42.419Z,101436.97
2018-07-01T04:23:11.008Z,101444.24
2018-07-01T04:25:39.860Z,101446.80
2018-07-01T04:28:08.355Z,101444.48
2018-07-01T04:30:37.150Z,101444.78
2018-07-01T04:33:05.905Z,101443.65
2018-07-01T04:35:34.416Z,101437.41
2018-07-01T04:38:02.809Z,101439.61
2018-07-01T04:40:31.232Z,101439.75
2018-07-01T04:42:59.720Z,101443.11
2018-07-01T04:45:28.286Z,101440.14
2018-07-01T04:47:57.092Z,101430.14
2018-07-01T04:50:25.665Z,101435.92
2018-07-01T04:52:55.104Z,101436.50
2018-07-01T04:55:24.039Z,101434.13
2018-07-01T04:57:52.321Z,101438.67
2018-07-01T05:00:20.929Z,101435.62
2018-07-01T05:02:49.484Z,101439.75
2018-07-01T05:05:18.101Z,101444.09
2018-07-01T05:07:46.632Z,101442.48
2018-07-01T05:10:15.024Z,101440.57
2018-07-01T05:12:43.441Z,101444.70
2018-07-01T05:15:12.025Z,101444.58
2018-07-01T05:17:40.498Z,101447.42
2018-07-01T05:20:09.055Z,101445.19
2018-07-01T05:22:37.468Z,101449.41
2018-07-01T05:25:06.072Z,101445.46
2018-07-01T05:27:34.464Z,101445.95
2018-07-01T05:30:03.381Z,101453.98
2018-07-01T05:32:32.101Z,101450.36
2018-07-01T05:35:02.325Z,101450.83
2018-07-01T05:37:31.036Z,101453.58
2018-07-01T05:39:59.952Z,101450.67
2018-07-01T05:42:30.473Z,101449.38
2018-07-01T05:44:59.107Z,101445.58
2018-07-01T05:47:31.246Z,101456.08
2018-07-01T05:50:01.546Z,101455.47
2018-07-01T05:52:30.294Z,101462.62
2018-07-01T05:54:58.796Z,101456.30
2018-07-01T05:57:27.289Z,101457.84
2018-07-01T05:59:55.709Z,101453.14
2018-07-01T06:02:24.509Z,101455.42
2018-07-01T06:04:53.236Z,101461.63
2018-07-01T06:07:21.713Z,101454.20
2018-07-01T06:09:50.187Z,101465.70
2018-07-01T06:12:18.799Z,101470.05
2018-07-01T06:14:47.468Z,101471.88
2018-07-01T06:17:15.970Z,101471.07
2018-07-01T06:19:44.657Z,101474.25
2018-07-01T06:22:14.539Z,101468.48
2018-07-01T06:24:43.257Z,101474.35
2018-07-01T06:27:11.968Z,101474.75
2018-07-01T06:29:40.471Z,101477.70
2018-07-01T06:32:09.050Z,101472.78
2018-07-01T06:34:37.590Z,101475.62
2018-07-01T06:37:06.209Z,101470.03
2018-07-01T06:39:34.758Z,101471.61
2018-07-01T06:42:03.413Z,101473.52
2018-07-01T06:44:31.854Z,101473.19
2018-07-01T06:47:00.425Z,101469.69
2018-07-01T06:49:29.008Z,101462.45
2018-07-01T06:51:57.758Z,101475.66
2018-07-01T06:54:26.384Z,101480.77
2018-07-01T06:56:54.885Z,101474.66
2018-07-01T06:59:23.129Z,101475.34
2018-07-01T07:01:51.561Z,101473.99
2018-07-01T07:04:20.503Z,101481.09
2018-07-01T07:06:49.183Z,101469.00
2018-07-01T07:09:17.747Z,101482.66
2018-07-01T07:11:46.488Z,101486.27
2018-07-01T07:14:14.920Z,101491.67
2018-07-01T07:16:43.509Z,101487.84
2018-07-01T07:19:12.010Z,101491.20
2018-07-01T07:21:40.576Z,101483.99
2018-07-01T07:24:09.280Z,101490.02
2018-07-01T07:26:37.858Z,101492.66
2018-07-01T07:29:06.472Z,101493.64
2018-07-01T07:31:34.889Z,101494.79
2018-07-01T07:34:03.488Z,101495.06
2018-07-01T07:36:31.993Z,101490.45
2018-07-01T07:39:00.610Z,101490.17
2018-07-01T07:41:29.040Z,101485.11
2018-07-01T07:43:57.559Z,101485.05
2018-07-01T07:46:26.249Z,101486.09
2018-07-01T07:48:55.503Z,101485.17
2018-07-01T07:51:24.248Z,101484.99
2018-07-01T07:53:52.636Z,101482.76
2018-07-01T07:56:21.169Z,101482.70
2018-07-01T07:58:49.810Z,101480.17
2018-07-01T08:01:18.418Z,101481.53
2018-07-01T08:03:46.920Z,101483.23
2018-07-01T08:06:15.784Z,101494.91
2018-07-01T08:08:44.319Z,101483.77
2018-07-01T08:11:12.869Z,101498.55
2018-07-01T08:13:41.482Z,101488.12
2018-07-01T08:16:09.992Z,101492.49
2018-07-01T08:18:38.576Z,101486.43
2018-07-01T08:21:06.960Z,101492.39
2018-07-01T08:23:35.382Z,101485.50
2018-07-01T08:26:04.272Z,101491.13
2018-07-01T08:28:32.781Z,101483.59
2018-07-01T08:31:01.433Z,101485.63
2018-07-01T08:33:30.346Z,101489.98
2018-07-01T08:35:59.019Z,101486.25
2018-07-01T08:38:27.660Z,101488.59
2018-07-01T08:40:55.905Z,101486.58
2018-07-01T08:43:24.492Z,101488.99
2018-07-01T08:45:52.938Z,101495.97
2018-07-01T08:48:21.384Z,101492.34
2018-07-01T08:50:50.013Z,101493.39
2018-07-01T08:53:18.884Z,101489.46
2018-07-01T08:55:47.452Z,101491.47
2018-07-01T08:58:16.019Z,101494.39
2018-07-01T09:00:44.837Z,101488.59
2018-07-01T09:03:13.771Z,101491.30
2018-07-01T09:05:42.458Z,101489.97
2018-07-01T09:08:11.110Z,101489.41
2018-07-01T09:10:46.314Z,101493.24
2018-07-01T09:13:14.824Z,101483.60
2018-07-01T09:15:43.295Z,101494.27
2018-07-01T09:18:12.097Z,101489.90
2018-07-01T09:20:40.542Z,101487.53
2018-07-01T09:23:08.838Z,101486.61
2018-07-01T09:25:37.789Z,101478.36
2018-07-01T09:28:06.633Z,101483.27
2018-07-01T09:30:35.111Z,101478.39
2018-07-01T09:33:03.707Z,101479.24
2018-07-01T09:35:32.331Z,101467.13
2018-07-01T09:38:00.799Z,101481.39
2018-07-01T09:40:29.492Z,101466.77
2018-07-01T09:42:58.019Z,101476.02
2018-07-01T09:45:26.397Z,101468.12
2018-07-01T09:47:55.181Z,101477.00
2018-07-01T09:50:24.161Z,101473.09
2018-07-01T09:52:52.704Z,101472.66
2018-07-01T09:55:21.293Z,101467.91
2018-07-01T09:57:49.826Z,101466.19
2018-07-01T10:00:18.473Z,101467.66
2018-07-01T10:02:47.145Z,101456.75
2018-07-01T10:05:16.004Z,101453.89
2018-07-01T10:07:44.816Z,101458.68
2018-07-01T10:10:13.332Z,101457.81
2018-07-01T10:12:42.094Z,101458.45
2018-07-01T10:15:10.757Z,101459.25
2018-07-01T10:17:38.961Z,101457.62
2018-07-01T10:20:07.764Z,101454.76
2018-07-01T10:22:36.303Z,101448.94
2018-07-01T10:25:05.302Z,101458.45
2018-07-01T10:27:33.676Z,101450.63
2018-07-01T10:30:02.541Z,101450.13
2018-07-01T10:32:30.916Z,101443.38
2018-07-01T10:34:59.543Z,101449.20
2018-07-01T10:37:28.161Z,101441.39
2018-07-01T10:39:56.619Z,101446.22
2018-07-01T10:42:25.329Z,101442.05
2018-07-01T10:44:53.852Z,101447.78
2018-07-01T10:47:22.125Z,101443.45
2018-07-01T10:49:50.418Z,101452.12
2018-07-01T10:52:18.883Z,101443.32
2018-07-01T10:54:47.336Z,101434.92
2018-07-01T10:57:16.170Z,101428.80
2018-07-01T10:59:45.194Z,101433.81
2018-07-01T11:02:13.926Z,101421.49
2018-07-01T11:04:42.497Z,101425.50
2018-07-01T11:07:10.967Z,101420.55
2018-07-01T11:09:39.379Z,101420.13
2018-07-01T11:12:07.708Z,101425.58
2018-07-01T11:14:36.213Z,101411.75
2018-07-01T11:17:05.081Z,101417.55
2018-07-01T11:19:34.097Z,101412.80
2018-07-01T11:22:02.825Z,101411.27
2018-07-01T11:24:31.207Z,101411.94
2018-07-01T11:27:00.136Z,101405.72
2018-07-01T11:29:28.612Z,101403.00
2018-07-01T11:31:57.228Z,101396.48
2018-07-01T11:34:25.954Z,101400.88
2018-07-01T11:36:54.377Z,101403.71
2018-07-01T11:39:22.900Z,101393.79
2018-07-01T11:41:51.532Z,101387.52
2018-07-01T11:44:20.264Z,101390.56
2018-07-01T11:46:48.819Z,101393.27
2018-07-01T11:49:17.465Z,101391.30
2018-07-01T11:51:46.044Z,101377.96
2018-07-01T11:54:14.571Z,101389.45
2018-07-01T11:56:43.193Z,101378.05
2018-07-01T11:59:11.731Z,101390.45
2018-07-01T12:01:40.647Z,101385.84
2018-07-01T12:04:09.227Z,101386.05
2018-07-01T12:06:37.796Z,101392.97
2018-07-01T12:09:08.950Z,101377.84
2018-07-01T12:11:38.161Z,101382.37
2018-07-01T12:14:07.030Z,101399.73
2018-07-01T12:16:35.786Z,101393.77
2018-07-01T12:19:04.997Z,101386.11
2018-07-01T12:21:33.744Z,101381.44
2018-07-01T12:24:02.280Z,101378.95
2018-07-01T12:26:30.848Z,101382.11
2018-07-01T12:28:59.397Z,101376.47
2018-07-01T12:31:27.801Z,101383.67
2018-07-01T12:33:56.297Z,101374.72
2018-07-01T12:36:24.919Z,101366.02
2018-07-01T12:38:53.339Z,101368.45
2018-07-01T12:41:22.014Z,101352.17
2018-07-01T12:43:51.046Z,101365.78
2018-07-01T12:46:19.607Z,101365.81
2018-07-01T12:48:48.287Z,101362.45
2018-07-01T12:51:17.039Z,101358.77
2018-07-01T12:53:45.710Z,101359.25
2018-07-01T12:56:14.507Z,101357.41
2018-07-01T12:58:43.213Z,101363.78
2018-07-01T13:01:11.768Z,101361.05
2018-07-01T13:03:40.340Z,101356.80
2018-07-01T13:06:08.861Z,101348.20
2018-07-01T13:08:37.698Z,101347.50
2018-07-01T13:11:06.003Z,101337.22
2018-07-01T13:13:34.486Z,101347.83
2018-07-01T13:16:03.171Z,101342.30
2018-07-01T13:18:31.870Z,101348.02
2018-07-01T13:21:00.421Z,101340.44
2018-07-01T13:23:29.317Z,101342.30
2018-07-01T13:25:58.008Z,101347.97
2018-07-01T13:28:26.753Z,101331.64
2018-07-01T13:30:55.251Z,101331.75
2018-07-01T13:33:23.861Z,101324.87
2018-07-01T13:35:52.827Z,101333.59
2018-07-01T13:38:21.539Z,101323.62
2018-07-01T13:40:50.193Z,101321.00
2018-07-01T13:43:18.562Z,101316.80
2018-07-01T13:45:47.356Z,101318.89
2018-07-01T13:48:15.870Z,101313.26
2018-07-01T13:50:44.596Z,101315.63
2018-07-01T13:53:12.960Z,101315.44
2018-07-01T13:55:41.683Z,101302.77
2018-07-01T13:58:09.980Z,101295.97
2018-07-01T14:00:38.668Z,101297.58
2018-07-01T14:03:06.952Z,101297.64
2018-07-01T14:05:35.721Z,101297.84
2018-07-01T14:08:04.227Z,101305.02
2018-07-01T14:10:32.851Z,101301.70
2018-07-01T14:13:01.621Z,101292.30
2018-07-01T14:15:30.175Z,101277.01
2018-07-01T14:17:58.889Z,101285.83
2018-07-01T14:20:27.308Z,101284.80
2018-07-01T14:22:56.131Z,101277.30
2018-07-01T14:25:25.151Z,101284.95
2018-07-01T14:27:53.959Z,101283.84
2018-07-01T14:30:22.950Z,101276.38
2018-07-01T14:32:51.863Z,101281.08
2018-07-01T14:35:20.447Z,101280.09
2018-07-01T14:37:48.938Z,101271.09
2018-07-01T14:40:17.551Z,101275.41
2018-07-01T14:42:46.099Z,101269.08
2018-07-01T14:45:14.628Z,101262.81
2018-07-01T14:47:43.327Z,101263.97
2018-07-01T14:50:12.170Z,101260.86
2018-07-01T14:52:40.711Z,101274.25
2018-07-01T14:55:09.281Z,101265.79
2018-07-01T14:57:37.836Z,101267.13
2018-07-01T15:00:06.256Z,101259.54
2018-07-01T15:02:35.103Z,101259.15
2018-07-01T15:05:04.453Z,101260.27
2018-07-01T15:07:33.038Z,101262.69
2018-07-01T15:10:01.962Z,101253.08
2018-07-01T15:12:30.566Z,101250.13
2018-07-01T15:14:59.208Z,101249.53
2018-07-01T15:17:28.212Z,101236.68
2018-07-01T15:19:56.779Z,101243.02
2018-07-01T15:22:25.596Z,101248.14
2018-07-01T15:24:54.145Z,101243.31
2018-07-01T15:27:22.768Z,101255.85
2018-07-01T15:29:51.662Z,101243.95
2018-07-01T15:32:20.516Z,101241.53
2018-07-01T15:34:49.123Z,101240.50
2018-07-01T15:37:17.947Z,101229.05
2018-07-01T15:39:46.752Z,101227.97
2018-07-01T15:42:15.579Z,101226.53
2018-07-01T15:44:44.120Z,101228.34
2018-07-01T15:47:12.672Z,101227.48
2018-07-01T15:49:41.218Z,101215.92
2018-07-01T15:52:09.747Z,101217.67
2018-07-01T15:54:38.480Z,101219.30
2018-07-01T15:57:06.896Z,101225.36
2018-07-01T15:59:36.008Z,101216.53
2018-07-01T16:02:04.853Z,101219.67
2018-07-01T16:04:33.238Z,101223.94
2018-07-01T16:07:01.972Z,101214.25
2018-07-01T16:09:30.615Z,101219.17
2018-07-01T16:11:59.273Z,101218.95
2018-07-01T16:14:27.889Z,101212.81
2018-07-01T16:16:56.406Z,101210.19
2018-07-01T16:19:26.363Z,101207.77
2018-07-01T16:21:55.784Z,101210.09
2018-07-01T16:24:24.243Z,101208.28
2018-07-01T16:27:57.890Z,101206.00
2018-07-01T16:30:26.635Z,101208.00
2018-07-01T16:32:55.400Z,101215.88
2018-07-01T16:35:23.730Z,101210.16
2018-07-01T16:37:52.357Z,101203.74
2018-07-01T16:40:20.912Z,101203.55
2018-07-01T16:42:49.493Z,101207.88
2018-07-01T16:45:18.026Z,101206.41
2018-07-01T16:47:46.349Z,101213.46
2018-07-01T16:50:14.896Z,101196.66
2018-07-01T16:52:43.279Z,101200.78
2018-07-01T16:55:11.793Z,101195.61
2018-07-01T16:57:40.407Z,101198.34
2018-07-01T17:00:09.418Z,101203.97
2018-07-01T17:02:38.746Z,101201.97
2018-07-01T17:05:07.619Z,101209.59
2018-07-01T17:07:36.365Z,101208.86
2018-07-01T17:10:05.310Z,101207.33
2018-07-01T17:12:34.041Z,101204.95
2018-07-01T17:15:02.859Z,101201.80
2018-07-01T17:17:31.681Z,101206.83
2018-07-01T17:20:00.221Z,101202.05
2018-07-01T17:22:29.137Z,101202.02
2018-07-01T17:24:57.495Z,101204.94
2018-07-01T17:27:26.048Z,101205.89
2018-07-01T17:29:54.927Z,101206.69
2018-07-01T17:32:29.040Z,101200.05
2018-07-01T17:34:57.486Z,101208.81
2018-07-01T17:37:25.924Z,101212.27
2018-07-01T17:39:54.412Z,101215.71
2018-07-01T17:42:23.049Z,101207.72
2018-07-01T17:44:51.621Z,101217.65
2018-07-01T17:47:20.052Z,101213.52
2018-07-01T17:49:48.818Z,101212.30
2018-07-01T17:52:17.240Z,101213.13
2018-07-01T17:54:45.893Z,101202.70
2018-07-01T17:57:14.281Z,101198.98
2018-07-01T17:59:43.414Z,101202.97
2018-07-01T18:02:11.939Z,101207.26
2018-07-01T18:04:40.477Z,101218.24
2018-07-01T18:07:09.147Z,101210.23
2018-07-01T18:09:37.616Z,101212.86
2018-07-01T18:12:06.844Z,101198.34
2018-07-01T18:14:35.669Z,101206.48
2018-07-01T18:17:04.293Z,101203.56
2018-07-01T18:19:33.018Z,101194.20
2018-07-01T18:22:15.644Z,101205.53
2018-07-01T18:24:53.949Z,101206.06
2018-07-01T18:26:59.192Z,101201.66
2018-07-01T18:29:27.709Z,101211.84
2018-07-01T18:31:56.308Z,101211.56
2018-07-01T18:34:24.832Z,101205.30
2018-07-01T18:36:53.354Z,101216.73
2018-07-01T18:39:21.796Z,101213.95
2018-07-01T18:41:50.615Z,101216.31
2018-07-01T18:44:19.330Z,101207.89
2018-07-01T18:46:47.755Z,101208.21
2018-07-01T18:49:16.367Z,101207.37
2018-07-01T18:51:45.585Z,101202.48
2018-07-01T18:54:14.536Z,101208.68
2018-07-01T18:56:42.978Z,101213.19
2018-07-01T18:59:11.923Z,101217.16
2018-07-01T19:01:40.689Z,101218.05
2018-07-01T19:04:09.068Z,101215.53
2018-07-01T19:06:37.649Z,101220.53
2018-07-01T19:09:08.203Z,101222.95
2018-07-01T19:11:36.704Z,101228.97
2018-07-01T19:14:05.317Z,101225.70
2018-07-01T19:16:33.811Z,101229.02
2018-07-01T19:19:02.645Z,101228.86
2018-07-01T19:21:31.318Z,101225.45
2018-07-01T19:23:59.730Z,101237.59
2018-07-01T19:26:28.529Z,101233.87
2018-07-01T19:28:57.048Z,101233.19
2018-07-01T19:31:25.664Z,101244.30
2018-07-01T19:33:54.304Z,101245.16
2018-07-01T19:36:22.960Z,101245.23
2018-07-01T19:38:51.616Z,101242.81
2018-07-01T19:41:20.318Z,101249.12
2018-07-01T19:43:48.847Z,101251.28
2018-07-01T19:46:17.630Z,101255.17
2018-07-01T19:48:46.265Z,101249.42
2018-07-01T19:51:14.529Z,101262.84
2018-07-01T19:53:42.961Z,101260.28
2018-07-01T19:56:11.397Z,101253.67
2018-07-01T19:58:40.089Z,101260.87
2018-07-01T20:01:08.542Z,101270.69
2018-07-01T20:03:37.038Z,101260.80
2018-07-01T20:06:05.981Z,101271.62
2018-07-01T20:08:34.464Z,101265.88
2018-07-01T20:11:03.202Z,101275.13
2018-07-01T20:13:31.580Z,101269.25
2018-07-01T20:15:59.857Z,101270.16
2018-07-01T20:18:28.412Z,101272.41
2018-07-01T20:20:57.033Z,101270.95
2018-07-01T20:23:25.836Z,101275.75
2018-07-01T20:25:54.706Z,101284.41
2018-07-01T20:28:23.020Z,101278.89
2018-07-01T20:30:52.922Z,101297.26
2018-07-01T20:33:21.592Z,101279.58
2018-07-01T20:35:50.337Z,101286.25
2018-07-01T20:38:19.669Z,101278.42
2018-07-01T20:40:48.473Z,101284.81
2018-07-01T20:43:17.059Z,101294.45
2018-07-01T20:45:45.616Z,101297.05
2018-07-01T20:48:14.513Z,101293.38
2018-07-01T20:50:43.023Z,101293.09
2018-07-01T20:53:11.588Z,101291.37
2018-07-01T20:55:40.043Z,101294.73
2018-07-01T20:58:08.755Z,101290.05
2018-07-01T21:00:37.136Z,101292.63
2018-07-01T21:03:05.885Z,101290.48
2018-07-01T21:05:34.439Z,101302.18
2018-07-01T21:08:03.206Z,101298.44
2018-07-01T21:10:31.800Z,101302.88
2018-07-01T21:13:00.585Z,101297.50
2018-07-01T21:15:29.080Z,101295.25
2018-07-01T21:17:57.678Z,101302.81
2018-07-01T21:20:26.236Z,101301.87
2018-07-01T21:22:54.789Z,101308.30
2018-07-01T21:25:23.211Z,101305.41
2018-07-01T21:27:51.936Z,101314.92
2018-07-01T21:30:20.429Z,101315.50
2018-07-01T21:32:49.009Z,101315.80
2018-07-01T21:35:17.809Z,101318.95
2018-07-01T21:37:46.582Z,101319.77
2018-07-01T21:40:15.084Z,101323.74
2018-07-01T21:42:43.871Z,101327.34
2018-07-01T21:45:12.377Z,101326.55
2018-07-01T21:47:40.918Z,101333.59
2018-07-01T21:50:09.652Z,101334.75
2018-07-01T21:52:37.991Z,101340.12
2018-07-01T21:55:06.477Z,101337.34
2018-07-01T21:57:34.918Z,101342.30
2018-07-01T22:00:04.534Z,101344.08
2018-07-01T22:02:33.072Z,101347.50
2018-07-01T22:05:01.675Z,101343.05
2018-07-01T22:07:30.192Z,101346.02
2018-07-01T22:09:59.111Z,101351.66
2018-07-01T22:12:44.575Z,101345.77
2018-07-01T22:15:30.046Z,101346.81
2018-07-01T22:17:58.728Z,101348.79
2018-07-01T22:20:27.366Z,101353.55
2018-07-01T22:22:55.810Z,101351.50
2018-07-01T22:25:24.336Z,101356.25
2018-07-01T22:27:52.989Z,101354.36
2018-07-01T22:30:21.668Z,101358.19
2018-07-01T22:32:50.421Z,101353.98
2018-07-01T22:35:18.824Z,101356.05
2018-07-01T22:37:47.332Z,101346.89
2018-07-01T22:40:15.814Z,101349.59
2018-07-01T22:42:44.465Z,101350.73
2018-07-01T22:45:12.972Z,101351.30
2018-07-01T22:47:41.439Z,101349.04
2018-07-01T22:50:09.952Z,101349.49
2018-07-01T22:52:38.238Z,101355.59
2018-07-01T22:55:06.857Z,101346.57
2018-07-01T22:57:35.300Z,101344.29
2018-07-01T23:00:04.325Z,101348.58
2018-07-01T23:03:09.889Z,101347.02
2018-07-01T23:05:38.257Z,101348.70
2018-07-01T23:08:06.959Z,101348.36
2018-07-01T23:10:35.627Z,101348.34
2018-07-01T23:13:04.737Z,101352.88
2018-07-01T23:15:33.246Z,101356.25
2018-07-01T23:18:01.536Z,101351.52
2018-07-01T23:20:30.022Z,101354.88
2018-07-01T23:22:58.589Z,101359.74
2018-07-01T23:25:27.060Z,101357.37
2018-07-01T23:27:55.672Z,101360.41
2018-07-01T23:30:23.971Z,101361.41
2018-07-01T23:32:52.489Z,101358.27
2018-07-01T23:35:21.092Z,101357.66
2018-07-01T23:37:49.796Z,101361.72
2018-07-01T23:40:18.344Z,101353.99
2018-07-01T23:42:46.705Z,101358.95
2018-07-01T23:45:16.071Z,101356.45
2018-07-01T23:47:44.623Z,101352.73
2018-07-01T23:50:13.098Z,101348.41
2018-07-01T23:52:41.702Z,101342.58
2018-07-01T23:55:10.607Z,101338.73
2018-07-01T23:57:39.244Z,101336.03
